This is the latest recevied weather packets stored in our database for station/object WX2NJ. If no packets are shown the sender has not sent any weather packets the latest 10 day(s).
| Time | Temp. | Humidity | Pressure | Rain* | Wind** | Luminosity | Snow |
|---|---|---|---|---|---|---|---|
| 1777899549 | 17.22° C | 45% | 1018.1 hPa | 0 mm | - | 379 W/m² | - |
| 1777899247 | 17.22° C | 44% | 1018.3 hPa | 0 mm | - | 336 W/m² | - |
| 1777898944 | 16.67° C | 47% | 1018 hPa | 0 mm | - | 257 W/m² | - |
| 1777898641 | 16.67° C | 49% | 1018.3 hPa | 0 mm | - | 192 W/m² | - |
| 1777898338 | 16.11° C | 51% | 1018.3 hPa | 0 mm | - | 318 W/m² | - |
| 1777898036 | 16.11° C | 52% | 1018.7 hPa | 0 mm | - | 203 W/m² | - |
| 1777897731 | 15.56° C | 52% | 1018.5 hPa | 0 mm | - | 219 W/m² | - |
| 1777897428 | 15.56° C | 53% | 1018.6 hPa | 0 mm | - | 289 W/m² | - |
| 1777897124 | 15° C | 54% | 1018.4 hPa | 0 mm | - | 259 W/m² | - |
| 1777896820 | 15° C | 55% | 1018.6 hPa | 0 mm | - | 261 W/m² | - |
| 1777896518 | 15° C | 56% | 1018.7 hPa | 0 mm | - | 196 W/m² | - |
| 1777896215 | 14.44° C | 57% | 1018.8 hPa | 0 mm | - | 165 W/m² | - |
| 1777895913 | 13.89° C | 58% | 1018.7 hPa | 0 mm | - | 196 W/m² | - |
| 1777895610 | 13.89° C | 58% | 1018.8 hPa | 0 mm | - | 202 W/m² | - |
| 1777895307 | 13.89° C | 59% | 1018.7 hPa | 0 mm | - | 185 W/m² | - |
| 1777895005 | 13.89° C | 60% | 1018.8 hPa | 0 mm | - | 171 W/m² | - |
| 1777894702 | 13.33° C | 62% | 1018.6 hPa | 0 mm | - | 170 W/m² | - |
| 1777894399 | 12.78° C | 63% | 1018.8 hPa | 0 mm | - | 172 W/m² | - |
| 1777894097 | 12.78° C | 63% | 1018.9 hPa | 0 mm | - | 132 W/m² | - |
| 1777893793 | 12.78° C | 64% | 1018.8 hPa | 0 mm | - | 117 W/m² | - |
| 1777893489 | 12.22° C | 64% | 1018.9 hPa | 0 mm | - | 125 W/m² | - |
| 1777893186 | 12.22° C | 65% | 1019.1 hPa | 0 mm | - | 111 W/m² | - |
| 1777892882 | 12.22° C | 65% | 1019.2 hPa | 0 mm | - | 102 W/m² | - |
| 1777892579 | 11.67° C | 66% | 1019 hPa | 0 mm | - | 89 W/m² | - |
| 1777892274 | 11.11° C | 67% | 1019.2 hPa | 0 mm | - | 73 W/m² | - |
* Rain latest hour (hover to see other rain measurements)
** Current wind speed in m/s (hover to see current wind gust speed)